sensor_id;sensor_type;location;lat;lon;timestamp;temperature;humidity
13369;DHT22;6753;52.520;13.450;2023-02-28T00:00:04;19.10;53.20
13369;DHT22;6753;52.520;13.450;2023-02-28T00:00:20;19.10;53.80
13369;DHT22;6753;52.520;13.450;2023-02-28T00:00:33;19.10;52.80
13369;DHT22;6753;52.520;13.450;2023-02-28T00:00:44;19.10;52.60
13369;DHT22;6753;52.520;13.450;2023-02-28T00:00:54;19.10;52.30
13369;DHT22;6753;52.520;13.450;2023-02-28T00:01:05;19.10;52.30
13369;DHT22;6753;52.520;13.450;2023-02-28T00:01:16;19.00;51.80
13369;DHT22;6753;52.520;13.450;2023-02-28T00:01:27;19.00;51.60
13369;DHT22;6753;52.520;13.450;2023-02-28T00:01:38;19.00;51.20
13369;DHT22;6753;52.520;13.450;2023-02-28T00:01:50;19.00;51.20
13369;DHT22;6753;52.520;13.450;2023-02-28T00:02:00;19.00;51.30
13369;DHT22;6753;52.520;13.450;2023-02-28T00:02:11;18.90;50.70
13369;DHT22;6753;52.520;13.450;2023-02-28T00:02:22;18.90;50.70
13369;DHT22;6753;52.520;13.450;2023-02-28T00:02:32;18.90;50.40
13369;DHT22;6753;52.520;13.450;2023-02-28T00:02:44;18.90;50.40
13369;DHT22;6753;52.520;13.450;2023-02-28T00:02:58;18.90;50.80
13369;DHT22;6753;52.520;13.450;2023-02-28T00:03:08;18.90;50.60
13369;DHT22;6753;52.520;13.450;2023-02-28T00:03:20;18.90;49.80
13369;DHT22;6753;52.520;13.450;2023-02-28T00:03:31;20.50;52.30
13369;DHT22;6753;52.520;13.450;2023-02-28T00:03:45;18.90;49.90
13369;DHT22;6753;52.520;13.450;2023-02-28T00:03:56;18.80;49.40
13369;DHT22;6753;52.520;13.450;2023-02-28T00:04:07;18.80;49.10
13369;DHT22;6753;52.520;13.450;2023-02-28T00:04:19;18.80;48.70
13369;DHT22;6753;52.520;13.450;2023-02-28T00:04:30;18.80;48.70
13369;DHT22;6753;52.520;13.450;2023-02-28T00:04:41;18.70;48.50
13369;DHT22;6753;52.520;13.450;2023-02-28T00:04:51;18.70;48.50
13369;DHT22;6753;52.520;13.450;2023-02-28T00:05:13;18.70;48.40
13369;DHT22;6753;52.520;13.450;2023-02-28T00:05:26;18.70;48.60
13369;DHT22;6753;52.520;13.450;2023-02-28T00:05:36;18.70;48.30
13369;DHT22;6753;52.520;13.450;2023-02-28T00:05:47;18.70;48.10
13369;DHT22;6753;52.520;13.450;2023-02-28T00:05:58;18.70;48.10
13369;DHT22;6753;52.520;13.450;2023-02-28T00:06:09;18.70;48.10
13369;DHT22;6753;52.520;13.450;2023-02-28T00:06:21;18.70;47.90
13369;DHT22;6753;52.520;13.450;2023-02-28T00:06:32;18.60;47.60
13369;DHT22;6753;52.520;13.450;2023-02-28T00:06:42;18.60;47.80
13369;DHT22;6753;52.520;13.450;2023-02-28T00:06:53;18.60;48.00
13369;DHT22;6753;52.520;13.450;2023-02-28T00:07:04;18.60;47.80
13369;DHT22;6753;52.520;13.450;2023-02-28T00:07:15;18.60;47.70
13369;DHT22;6753;52.520;13.450;2023-02-28T00:07:25;18.60;47.50
13369;DHT22;6753;52.520;13.450;2023-02-28T00:07:36;18.60;47.60
13369;DHT22;6753;52.520;13.450;2023-02-28T00:07:49;18.60;47.60
13369;DHT22;6753;52.520;13.450;2023-02-28T00:08:00;18.60;47.30
13369;DHT22;6753;52.520;13.450;2023-02-28T00:08:11;18.60;47.30
13369;DHT22;6753;52.520;13.450;2023-02-28T00:08:22;18.60;47.20
13369;DHT22;6753;52.520;13.450;2023-02-28T00:08:32;18.60;47.00
13369;DHT22;6753;52.520;13.450;2023-02-28T00:08:44;18.60;47.10
13369;DHT22;6753;52.520;13.450;2023-02-28T00:08:56;18.60;46.80
13369;DHT22;6753;52.520;13.450;2023-02-28T00:09:06;20.40;49.70
13369;DHT22;6753;52.520;13.450;2023-02-28T00:09:17;18.50;46.90
13369;DHT22;6753;52.520;13.450;2023-02-28T00:09:28;18.50;46.80
13369;DHT22;6753;52.520;13.450;2023-02-28T00:09:39;18.50;46.70
13369;DHT22;6753;52.520;13.450;2023-02-28T00:09:49;18.50;46.60
13369;DHT22;6753;52.520;13.450;2023-02-28T00:10:00;18.50;46.50
13369;DHT22;6753;52.520;13.450;2023-02-28T00:10:13;18.50;46.40
13369;DHT22;6753;52.520;13.450;2023-02-28T00:10:27;18.50;46.10
13369;DHT22;6753;52.520;13.450;2023-02-28T00:10:39;18.50;46.10
13369;DHT22;6753;52.520;13.450;2023-02-28T00:10:50;18.50;46.20
13369;DHT22;6753;52.520;13.450;2023-02-28T00:11:01;18.50;46.10
13369;DHT22;6753;52.520;13.450;2023-02-28T00:11:14;19.40;47.30
13369;DHT22;6753;52.520;13.450;2023-02-28T00:11:25;18.50;46.10
13369;DHT22;6753;52.520;13.450;2023-02-28T00:11:36;18.50;45.70
13369;DHT22;6753;52.520;13.450;2023-02-28T00:11:48;18.40;45.80
13369;DHT22;6753;52.520;13.450;2023-02-28T00:11:59;18.40;45.60
13369;DHT22;6753;52.520;13.450;2023-02-28T00:12:10;18.40;45.80
13369;DHT22;6753;52.520;13.450;2023-02-28T00:12:21;18.40;45.90
13369;DHT22;6753;52.520;13.450;2023-02-28T00:12:32;18.40;45.60
13369;DHT22;6753;52.520;13.450;2023-02-28T00:12:43;18.40;46.20
13369;DHT22;6753;52.520;13.450;2023-02-28T00:12:56;18.40;45.60
13369;DHT22;6753;52.520;13.450;2023-02-28T00:13:10;18.40;45.60
13369;DHT22;6753;52.520;13.450;2023-02-28T00:13:21;18.40;45.50
13369;DHT22;6753;52.520;13.450;2023-02-28T00:13:34;18.40;45.60
13369;DHT22;6753;52.520;13.450;2023-02-28T00:13:46;18.40;45.50
13369;DHT22;6753;52.520;13.450;2023-02-28T00:13:58;18.40;45.30
13369;DHT22;6753;52.520;13.450;2023-02-28T00:14:09;18.40;45.30
13369;DHT22;6753;52.520;13.450;2023-02-28T00:14:20;18.40;45.30
13369;DHT22;6753;52.520;13.450;2023-02-28T00:14:31;20.60;48.40
13369;DHT22;6753;52.520;13.450;2023-02-28T00:14:41;18.40;45.40
13369;DHT22;6753;52.520;13.450;2023-02-28T00:14:52;18.40;45.30
13369;DHT22;6753;52.520;13.450;2023-02-28T00:15:06;18.40;44.90
13369;DHT22;6753;52.520;13.450;2023-02-28T00:15:17;18.30;44.90
13369;DHT22;6753;52.520;13.450;2023-02-28T00:15:29;18.30;45.00
13369;DHT22;6753;52.520;13.450;2023-02-28T00:15:40;18.30;45.10
13369;DHT22;6753;52.520;13.450;2023-02-28T00:15:59;18.30;44.90
13369;DHT22;6753;52.520;13.450;2023-02-28T00:16:12;18.30;44.70
13369;DHT22;6753;52.520;13.450;2023-02-28T00:16:24;18.30;44.80
13369;DHT22;6753;52.520;13.450;2023-02-28T00:16:34;19.60;46.70
13369;DHT22;6753;52.520;13.450;2023-02-28T00:16:45;18.30;44.80
13369;DHT22;6753;52.520;13.450;2023-02-28T00:16:57;18.30;44.60
13369;DHT22;6753;52.520;13.450;2023-02-28T00:17:07;18.30;44.30
13369;DHT22;6753;52.520;13.450;2023-02-28T00:17:19;18.30;44.40
13369;DHT22;6753;52.520;13.450;2023-02-28T00:17:31;19.40;46.00
13369;DHT22;6753;52.520;13.450;2023-02-28T00:17:42;18.30;44.30
13369;DHT22;6753;52.520;13.450;2023-02-28T00:17:55;18.30;44.30
13369;DHT22;6753;52.520;13.450;2023-02-28T00:18:05;18.30;44.40
13369;DHT22;6753;52.520;13.450;2023-02-28T00:18:16;18.30;44.40
13369;DHT22;6753;52.520;13.450;2023-02-28T00:18:28;18.30;44.10
13369;DHT22;6753;52.520;13.450;2023-02-28T00:18:39;18.30;44.00
13369;DHT22;6753;52.520;13.450;2023-02-28T00:18:50;18.20;43.90
13369;DHT22;6753;52.520;13.450;2023-02-28T00:19:01;18.20;43.80
13369;DHT22;6753;52.520;13.450;2023-02-28T00:19:12;18.20;43.90
13369;DHT22;6753;52.520;13.450;2023-02-28T00:19:23;18.20;43.80
13369;DHT22;6753;52.520;13.450;2023-02-28T00:19:34;18.20;43.90
13369;DHT22;6753;52.520;13.450;2023-02-28T00:19:45;18.20;44.10
13369;DHT22;6753;52.520;13.450;2023-02-28T00:19:56;18.20;44.20
13369;DHT22;6753;52.520;13.450;2023-02-28T00:20:13;18.20;44.00
13369;DHT22;6753;52.520;13.450;2023-02-28T00:20:24;18.20;44.00
13369;DHT22;6753;52.520;13.450;2023-02-28T00:20:35;18.20;44.00
13369;DHT22;6753;52.520;13.450;2023-02-28T00:20:45;18.10;43.80
13369;DHT22;6753;52.520;13.450;2023-02-28T00:20:56;18.20;43.90
13369;DHT22;6753;52.520;13.450;2023-02-28T00:21:07;18.10;43.50
13369;DHT22;6753;52.520;13.450;2023-02-28T00:21:19;18.10;43.50
13369;DHT22;6753;52.520;13.450;2023-02-28T00:21:31;18.10;43.60
13369;DHT22;6753;52.520;13.450;2023-02-28T00:21:41;18.10;43.50
13369;DHT22;6753;52.520;13.450;2023-02-28T00:21:53;18.10;43.70
13369;DHT22;6753;52.520;13.450;2023-02-28T00:22:04;18.60;44.50
13369;DHT22;6753;52.520;13.450;2023-02-28T00:22:15;18.10;44.10
13369;DHT22;6753;52.520;13.450;2023-02-28T00:22:26;18.90;45.20
13369;DHT22;6753;52.520;13.450;2023-02-28T00:22:37;18.10;44.20
13369;DHT22;6753;52.520;13.450;2023-02-28T00:22:51;18.10;44.30
13369;DHT22;6753;52.520;13.450;2023-02-28T00:23:03;18.10;44.30
13369;DHT22;6753;52.520;13.450;2023-02-28T00:23:14;18.10;44.30
13369;DHT22;6753;52.520;13.450;2023-02-28T00:23:25;18.10;44.90
13369;DHT22;6753;52.520;13.450;2023-02-28T00:23:36;18.10;44.30
13369;DHT22;6753;52.520;13.450;2023-02-28T00:23:47;18.10;44.30
13369;DHT22;6753;52.520;13.450;2023-02-28T00:23:59;18.10;44.20
13369;DHT22;6753;52.520;13.450;2023-02-28T00:24:10;19.40;45.90
13369;DHT22;6753;52.520;13.450;2023-02-28T00:24:21;18.10;44.00
13369;DHT22;6753;52.520;13.450;2023-02-28T00:24:31;18.10;44.00
13369;DHT22;6753;52.520;13.450;2023-02-28T00:24:42;18.10;43.90
13369;DHT22;6753;52.520;13.450;2023-02-28T00:24:53;18.20;44.00
13369;DHT22;6753;52.520;13.450;2023-02-28T00:25:04;18.20;44.00
13369;DHT22;6753;52.520;13.450;2023-02-28T00:25:18;18.20;44.20
13369;DHT22;6753;52.520;13.450;2023-02-28T00:25:30;18.20;44.20
13369;DHT22;6753;52.520;13.450;2023-02-28T00:25:41;18.20;44.40
13369;DHT22;6753;52.520;13.450;2023-02-28T00:25:52;18.20;44.50
13369;DHT22;6753;52.520;13.450;2023-02-28T00:26:03;18.20;44.70
13369;DHT22;6753;52.520;13.450;2023-02-28T00:26:14;18.20;44.70
13369;DHT22;6753;52.520;13.450;2023-02-28T00:26:25;18.20;44.70
13369;DHT22;6753;52.520;13.450;2023-02-28T00:26:36;18.20;44.70
13369;DHT22;6753;52.520;13.450;2023-02-28T00:26:46;18.20;44.90
13369;DHT22;6753;52.520;13.450;2023-02-28T00:26:58;18.20;45.00
13369;DHT22;6753;52.520;13.450;2023-02-28T00:27:09;18.20;45.00
13369;DHT22;6753;52.520;13.450;2023-02-28T00:27:20;18.20;44.90
13369;DHT22;6753;52.520;13.450;2023-02-28T00:27:30;18.20;44.90
13369;DHT22;6753;52.520;13.450;2023-02-28T00:27:41;18.20;44.80
13369;DHT22;6753;52.520;13.450;2023-02-28T00:27:52;18.20;44.70
13369;DHT22;6753;52.520;13.450;2023-02-28T00:28:03;18.20;44.70
13369;DHT22;6753;52.520;13.450;2023-02-28T00:28:15;18.20;44.70
13369;DHT22;6753;52.520;13.450;2023-02-28T00:28:26;18.30;44.90
13369;DHT22;6753;52.520;13.450;2023-02-28T00:28:38;18.20;44.70
13369;DHT22;6753;52.520;13.450;2023-02-28T00:28:49;18.20;44.70
13369;DHT22;6753;52.520;13.450;2023-02-28T00:29:03;18.20;44.80
13369;DHT22;6753;52.520;13.450;2023-02-28T00:29:13;18.20;44.80
13369;DHT22;6753;52.520;13.450;2023-02-28T00:29:24;18.20;44.70
13369;DHT22;6753;52.520;13.450;2023-02-28T00:29:35;18.20;44.50
13369;DHT22;6753;52.520;13.450;2023-02-28T00:29:47;19.30;46.00
13369;DHT22;6753;52.520;13.450;2023-02-28T00:29:58;18.20;44.40
13369;DHT22;6753;52.520;13.450;2023-02-28T00:30:11;18.20;44.50
13369;DHT22;6753;52.520;13.450;2023-02-28T00:30:23;18.20;44.70
13369;DHT22;6753;52.520;13.450;2023-02-28T00:30:37;18.20;44.80
13369;DHT22;6753;52.520;13.450;2023-02-28T00:30:47;18.20;44.50
13369;DHT22;6753;52.520;13.450;2023-02-28T00:30:58;18.30;44.90
13369;DHT22;6753;52.520;13.450;2023-02-28T00:31:10;18.20;44.80
13369;DHT22;6753;52.520;13.450;2023-02-28T00:31:22;18.20;44.90
13369;DHT22;6753;52.520;13.450;2023-02-28T00:31:32;18.20;44.90
13369;DHT22;6753;52.520;13.450;2023-02-28T00:31:43;18.30;45.00
13369;DHT22;6753;52.520;13.450;2023-02-28T00:31:54;18.20;44.90
13369;DHT22;6753;52.520;13.450;2023-02-28T00:32:05;18.30;45.10
13369;DHT22;6753;52.520;13.450;2023-02-28T00:32:16;18.30;45.10
13369;DHT22;6753;52.520;13.450;2023-02-28T00:32:29;18.30;45.10
13369;DHT22;6753;52.520;13.450;2023-02-28T00:32:40;18.30;45.20
13369;DHT22;6753;52.520;13.450;2023-02-28T00:32:52;18.30;45.20
13369;DHT22;6753;52.520;13.450;2023-02-28T00:33:03;18.30;45.20
13369;DHT22;6753;52.520;13.450;2023-02-28T00:33:14;18.40;45.30
13369;DHT22;6753;52.520;13.450;2023-02-28T00:33:24;18.30;45.20
13369;DHT22;6753;52.520;13.450;2023-02-28T00:33:35;19.10;46.40
13369;DHT22;6753;52.520;13.450;2023-02-28T00:33:46;18.30;45.20
13369;DHT22;6753;52.520;13.450;2023-02-28T00:33:57;18.30;45.10
13369;DHT22;6753;52.520;13.450;2023-02-28T00:34:08;18.30;45.10
13369;DHT22;6753;52.520;13.450;2023-02-28T00:34:19;18.30;45.00
13369;DHT22;6753;52.520;13.450;2023-02-28T00:34:30;18.30;45.00
13369;DHT22;6753;52.520;13.450;2023-02-28T00:34:43;18.30;45.10
13369;DHT22;6753;52.520;13.450;2023-02-28T00:34:54;18.30;45.30
13369;DHT22;6753;52.520;13.450;2023-02-28T00:35:06;18.30;45.40
13369;DHT22;6753;52.520;13.450;2023-02-28T00:35:18;18.30;45.50
13369;DHT22;6753;52.520;13.450;2023-02-28T00:35:29;18.30;45.30
13369;DHT22;6753;52.520;13.450;2023-02-28T00:35:40;18.30;45.20
13369;DHT22;6753;52.520;13.450;2023-02-28T00:35:51;18.30;45.30
13369;DHT22;6753;52.520;13.450;2023-02-28T00:36:04;18.40;45.50
13369;DHT22;6753;52.520;13.450;2023-02-28T00:36:15;18.40;45.50
13369;DHT22;6753;52.520;13.450;2023-02-28T00:36:26;18.40;45.50
13369;DHT22;6753;52.520;13.450;2023-02-28T00:36:36;18.40;45.50
13369;DHT22;6753;52.520;13.450;2023-02-28T00:36:47;18.40;45.50
13369;DHT22;6753;52.520;13.450;2023-02-28T00:36:59;18.40;45.50
13369;DHT22;6753;52.520;13.450;2023-02-28T00:37:11;18.30;45.30
13369;DHT22;6753;52.520;13.450;2023-02-28T00:37:22;18.40;45.50
13369;DHT22;6753;52.520;13.450;2023-02-28T00:37:33;18.40;45.50
13369;DHT22;6753;52.520;13.450;2023-02-28T00:37:44;18.40;45.50
13369;DHT22;6753;52.520;13.450;2023-02-28T00:37:55;18.40;45.50
13369;DHT22;6753;52.520;13.450;2023-02-28T00:38:06;18.40;45.50
13369;DHT22;6753;52.520;13.450;2023-02-28T00:38:16;18.40;45.50
13369;DHT22;6753;52.520;13.450;2023-02-28T00:38:28;18.40;45.60
13369;DHT22;6753;52.520;13.450;2023-02-28T00:38:40;18.40;45.50
13369;DHT22;6753;52.520;13.450;2023-02-28T00:38:51;18.40;45.60
13369;DHT22;6753;52.520;13.450;2023-02-28T00:39:02;18.40;45.60
13369;DHT22;6753;52.520;13.450;2023-02-28T00:39:13;18.40;45.60
13369;DHT22;6753;52.520;13.450;2023-02-28T00:39:24;18.40;45.60
13369;DHT22;6753;52.520;13.450;2023-02-28T00:39:36;18.40;45.60
13369;DHT22;6753;52.520;13.450;2023-02-28T00:39:47;18.40;45.60
13369;DHT22;6753;52.520;13.450;2023-02-28T00:39:58;18.40;45.50
13369;DHT22;6753;52.520;13.450;2023-02-28T00:40:10;18.40;45.50
13369;DHT22;6753;52.520;13.450;2023-02-28T00:40:22;18.50;45.80
13369;DHT22;6753;52.520;13.450;2023-02-28T00:40:33;18.40;45.70
13369;DHT22;6753;52.520;13.450;2023-02-28T00:40:43;18.40;45.70
13369;DHT22;6753;52.520;13.450;2023-02-28T00:40:54;18.40;45.70
13369;DHT22;6753;52.520;13.450;2023-02-28T00:41:06;18.40;45.70
13369;DHT22;6753;52.520;13.450;2023-02-28T00:41:17;18.40;45.70
13369;DHT22;6753;52.520;13.450;2023-02-28T00:41:29;18.40;45.70
13369;DHT22;6753;52.520;13.450;2023-02-28T00:41:40;18.40;45.70
13369;DHT22;6753;52.520;13.450;2023-02-28T00:41:50;18.40;45.80
13369;DHT22;6753;52.520;13.450;2023-02-28T00:42:02;18.40;45.80
13369;DHT22;6753;52.520;13.450;2023-02-28T00:42:13;18.40;45.90
13369;DHT22;6753;52.520;13.450;2023-02-28T00:42:24;18.50;46.00
13369;DHT22;6753;52.520;13.450;2023-02-28T00:42:35;18.40;45.90
13369;DHT22;6753;52.520;13.450;2023-02-28T00:42:46;19.90;48.10
13369;DHT22;6753;52.520;13.450;2023-02-28T00:42:57;18.50;46.00
13369;DHT22;6753;52.520;13.450;2023-02-28T00:43:09;18.50;46.00
13369;DHT22;6753;52.520;13.450;2023-02-28T00:43:21;19.50;47.50
13369;DHT22;6753;52.520;13.450;2023-02-28T00:43:32;18.50;46.10
13369;DHT22;6753;52.520;13.450;2023-02-28T00:43:43;18.50;46.20
13369;DHT22;6753;52.520;13.450;2023-02-28T00:43:54;18.50;46.80
13369;DHT22;6753;52.520;13.450;2023-02-28T00:44:05;18.50;46.30
13369;DHT22;6753;52.520;13.450;2023-02-28T00:44:16;18.50;46.30
13369;DHT22;6753;52.520;13.450;2023-02-28T00:44:26;18.50;46.30
13369;DHT22;6753;52.520;13.450;2023-02-28T00:44:38;18.50;46.30
13369;DHT22;6753;52.520;13.450;2023-02-28T00:44:49;18.50;46.30
13369;DHT22;6753;52.520;13.450;2023-02-28T00:45:00;18.50;46.30
13369;DHT22;6753;52.520;13.450;2023-02-28T00:45:11;18.50;46.30
13369;DHT22;6753;52.520;13.450;2023-02-28T00:45:22;18.50;46.40
13369;DHT22;6753;52.520;13.450;2023-02-28T00:45:33;18.50;46.40
13369;DHT22;6753;52.520;13.450;2023-02-28T00:45:43;18.50;46.30
13369;DHT22;6753;52.520;13.450;2023-02-28T00:45:54;18.50;46.30
13369;DHT22;6753;52.520;13.450;2023-02-28T00:46:06;18.50;46.40
13369;DHT22;6753;52.520;13.450;2023-02-28T00:46:17;18.50;46.50
13369;DHT22;6753;52.520;13.450;2023-02-28T00:46:28;16.70;44.00
13369;DHT22;6753;52.520;13.450;2023-02-28T00:46:39;18.40;46.50
13369;DHT22;6753;52.520;13.450;2023-02-28T00:46:49;18.50;46.70
13369;DHT22;6753;52.520;13.450;2023-02-28T00:47:00;18.50;46.70
13369;DHT22;6753;52.520;13.450;2023-02-28T00:47:11;18.50;46.70
13369;DHT22;6753;52.520;13.450;2023-02-28T00:47:22;18.50;46.70
13369;DHT22;6753;52.520;13.450;2023-02-28T00:47:33;18.50;46.70
13369;DHT22;6753;52.520;13.450;2023-02-28T00:47:44;18.50;46.70
13369;DHT22;6753;52.520;13.450;2023-02-28T00:47:56;20.50;49.60
13369;DHT22;6753;52.520;13.450;2023-02-28T00:48:07;18.50;46.80
13369;DHT22;6753;52.520;13.450;2023-02-28T00:48:18;18.50;46.80
13369;DHT22;6753;52.520;13.450;2023-02-28T00:48:29;18.50;46.90
13369;DHT22;6753;52.520;13.450;2023-02-28T00:48:40;20.00;49.00
13369;DHT22;6753;52.520;13.450;2023-02-28T00:48:52;18.50;46.80
13369;DHT22;6753;52.520;13.450;2023-02-28T00:49:03;18.50;46.90
13369;DHT22;6753;52.520;13.450;2023-02-28T00:49:13;18.50;46.90
13369;DHT22;6753;52.520;13.450;2023-02-28T00:49:24;18.50;47.00
13369;DHT22;6753;52.520;13.450;2023-02-28T00:49:35;18.50;47.00
13369;DHT22;6753;52.520;13.450;2023-02-28T00:49:46;18.50;47.00
13369;DHT22;6753;52.520;13.450;2023-02-28T00:49:57;18.50;46.90
13369;DHT22;6753;52.520;13.450;2023-02-28T00:50:09;18.50;47.00
13369;DHT22;6753;52.520;13.450;2023-02-28T00:50:21;18.50;47.10
13369;DHT22;6753;52.520;13.450;2023-02-28T00:50:31;18.50;47.10
13369;DHT22;6753;52.520;13.450;2023-02-28T00:50:42;18.50;47.10
13369;DHT22;6753;52.520;13.450;2023-02-28T00:50:53;18.50;47.10
13369;DHT22;6753;52.520;13.450;2023-02-28T00:51:05;18.50;47.10
13369;DHT22;6753;52.520;13.450;2023-02-28T00:51:16;18.50;47.10
13369;DHT22;6753;52.520;13.450;2023-02-28T00:51:26;18.50;47.60
13369;DHT22;6753;52.520;13.450;2023-02-28T00:51:37;18.50;47.10
13369;DHT22;6753;52.520;13.450;2023-02-28T00:51:48;18.50;47.80
13369;DHT22;6753;52.520;13.450;2023-02-28T00:52:00;18.50;47.20
13369;DHT22;6753;52.520;13.450;2023-02-28T00:52:11;18.50;47.20
13369;DHT22;6753;52.520;13.450;2023-02-28T00:52:22;18.50;47.20
13369;DHT22;6753;52.520;13.450;2023-02-28T00:52:33;18.50;47.20
13369;DHT22;6753;52.520;13.450;2023-02-28T00:52:44;18.50;47.30
13369;DHT22;6753;52.520;13.450;2023-02-28T00:52:55;18.50;47.30
13369;DHT22;6753;52.520;13.450;2023-02-28T00:53:06;18.50;47.40
13369;DHT22;6753;52.520;13.450;2023-02-28T00:53:16;19.40;48.60
13369;DHT22;6753;52.520;13.450;2023-02-28T00:53:27;18.50;47.30
13369;DHT22;6753;52.520;13.450;2023-02-28T00:53:38;18.50;47.90
13369;DHT22;6753;52.520;13.450;2023-02-28T00:53:50;18.50;47.30
13369;DHT22;6753;52.520;13.450;2023-02-28T00:54:01;20.50;50.30
13369;DHT22;6753;52.520;13.450;2023-02-28T00:54:12;18.50;47.50
13369;DHT22;6753;52.520;13.450;2023-02-28T00:54:23;18.50;47.50
13369;DHT22;6753;52.520;13.450;2023-02-28T00:54:34;18.50;47.50
13369;DHT22;6753;52.520;13.450;2023-02-28T00:54:45;18.50;47.40
13369;DHT22;6753;52.520;13.450;2023-02-28T00:54:56;18.50;47.40
13369;DHT22;6753;52.520;13.450;2023-02-28T00:55:07;18.50;47.50
13369;DHT22;6753;52.520;13.450;2023-02-28T00:55:19;18.50;47.60
13369;DHT22;6753;52.520;13.450;2023-02-28T00:55:29;18.50;47.60
13369;DHT22;6753;52.520;13.450;2023-02-28T00:55:40;18.50;47.60
13369;DHT22;6753;52.520;13.450;2023-02-28T00:55:51;18.50;47.70
13369;DHT22;6753;52.520;13.450;2023-02-28T00:56:02;18.50;47.70
13369;DHT22;6753;52.520;13.450;2023-02-28T00:56:13;18.50;47.70
13369;DHT22;6753;52.520;13.450;2023-02-28T00:56:25;18.50;47.70
13369;DHT22;6753;52.520;13.450;2023-02-28T00:56:36;18.50;47.70
13369;DHT22;6753;52.520;13.450;2023-02-28T00:56:47;18.50;47.70
13369;DHT22;6753;52.520;13.450;2023-02-28T00:56:57;18.50;47.70
13369;DHT22;6753;52.520;13.450;2023-02-28T00:57:08;18.50;47.70
13369;DHT22;6753;52.520;13.450;2023-02-28T00:57:19;18.50;47.80
13369;DHT22;6753;52.520;13.450;2023-02-28T00:57:30;18.50;47.80
13369;DHT22;6753;52.520;13.450;2023-02-28T00:57:41;18.50;47.90
13369;DHT22;6753;52.520;13.450;2023-02-28T00:57:51;18.50;47.80
13369;DHT22;6753;52.520;13.450;2023-02-28T00:58:03;18.50;47.80
13369;DHT22;6753;52.520;13.450;2023-02-28T00:58:14;18.50;47.80
13369;DHT22;6753;52.520;13.450;2023-02-28T00:58:26;19.60;49.50
13369;DHT22;6753;52.520;13.450;2023-02-28T00:58:37;18.50;47.80
13369;DHT22;6753;52.520;13.450;2023-02-28T00:58:47;18.50;47.80
13369;DHT22;6753;52.520;13.450;2023-02-28T00:58:58;18.50;48.00
13369;DHT22;6753;52.520;13.450;2023-02-28T00:59:09;18.50;47.90
13369;DHT22;6753;52.520;13.450;2023-02-28T00:59:20;18.50;48.00
13369;DHT22;6753;52.520;13.450;2023-02-28T00:59:31;18.50;47.90
13369;DHT22;6753;52.520;13.450;2023-02-28T00:59:42;18.50;47.90
13369;DHT22;6753;52.520;13.450;2023-02-28T00:59:53;18.50;47.90
13369;DHT22;6753;52.520;13.450;2023-02-28T01:00:05;18.50;47.90
13369;DHT22;6753;52.520;13.450;2023-02-28T01:00:17;18.50;48.00
13369;DHT22;6753;52.520;13.450;2023-02-28T01:00:28;18.50;48.00
13369;DHT22;6753;52.520;13.450;2023-02-28T01:00:38;18.50;48.00
13369;DHT22;6753;52.520;13.450;2023-02-28T01:00:50;18.50;48.00
13369;DHT22;6753;52.520;13.450;2023-02-28T01:01:04;18.50;48.00
13369;DHT22;6753;52.520;13.450;2023-02-28T01:01:15;18.50;48.00
13369;DHT22;6753;52.520;13.450;2023-02-28T01:01:26;18.50;48.00
13369;DHT22;6753;52.520;13.450;2023-02-28T01:01:36;20.00;50.20
13369;DHT22;6753;52.520;13.450;2023-02-28T01:01:47;18.50;47.90
13369;DHT22;6753;52.520;13.450;2023-02-28T01:01:58;18.50;48.00
13369;DHT22;6753;52.520;13.450;2023-02-28T01:02:09;18.50;47.90
13369;DHT22;6753;52.520;13.450;2023-02-28T01:02:20;20.60;51.10
13369;DHT22;6753;52.520;13.450;2023-02-28T01:02:31;18.50;48.00
13369;DHT22;6753;52.520;13.450;2023-02-28T01:02:42;18.90;48.60
13369;DHT22;6753;52.520;13.450;2023-02-28T01:02:53;18.50;48.10
13369;DHT22;6753;52.520;13.450;2023-02-28T01:03:04;18.50;48.10
13369;DHT22;6753;52.520;13.450;2023-02-28T01:03:15;18.50;48.10
13369;DHT22;6753;52.520;13.450;2023-02-28T01:03:27;18.50;48.20
13369;DHT22;6753;52.520;13.450;2023-02-28T01:03:38;18.50;48.20
13369;DHT22;6753;52.520;13.450;2023-02-28T01:03:49;18.50;48.20
13369;DHT22;6753;52.520;13.450;2023-02-28T01:03:59;18.50;48.30
13369;DHT22;6753;52.520;13.450;2023-02-28T01:04:10;18.50;48.30
13369;DHT22;6753;52.520;13.450;2023-02-28T01:04:21;18.50;48.40
13369;DHT22;6753;52.520;13.450;2023-02-28T01:04:33;18.50;48.50
13369;DHT22;6753;52.520;13.450;2023-02-28T01:04:44;18.50;48.50
13369;DHT22;6753;52.520;13.450;2023-02-28T01:04:54;18.50;48.60
13369;DHT22;6753;52.520;13.450;2023-02-28T01:05:08;18.50;48.60
13369;DHT22;6753;52.520;13.450;2023-02-28T01:05:18;18.50;48.60
13369;DHT22;6753;52.520;13.450;2023-02-28T01:05:29;16.80;46.20
13369;DHT22;6753;52.520;13.450;2023-02-28T01:05:40;18.50;48.60
13369;DHT22;6753;52.520;13.450;2023-02-28T01:05:52;18.50;48.60
13369;DHT22;6753;52.520;13.450;2023-02-28T01:06:03;18.50;48.60
13369;DHT22;6753;52.520;13.450;2023-02-28T01:06:14;18.50;48.60
13369;DHT22;6753;52.520;13.450;2023-02-28T01:06:25;18.50;48.60
13369;DHT22;6753;52.520;13.450;2023-02-28T01:06:36;18.50;48.60
13369;DHT22;6753;52.520;13.450;2023-02-28T01:06:47;18.50;48.60
13369;DHT22;6753;52.520;13.450;2023-02-28T01:06:58;18.50;48.70
13369;DHT22;6753;52.520;13.450;2023-02-28T01:07:10;18.50;48.70
13369;DHT22;6753;52.520;13.450;2023-02-28T01:07:20;18.50;48.70
13369;DHT22;6753;52.520;13.450;2023-02-28T01:07:31;18.50;48.80
13369;DHT22;6753;52.520;13.450;2023-02-28T01:07:42;18.50;48.80
13369;DHT22;6753;52.520;13.450;2023-02-28T01:07:52;18.50;48.80
13369;DHT22;6753;52.520;13.450;2023-02-28T01:08:04;18.50;48.80
13369;DHT22;6753;52.520;13.450;2023-02-28T01:08:15;18.50;48.80
13369;DHT22;6753;52.520;13.450;2023-02-28T01:08:27;18.50;48.70
13369;DHT22;6753;52.520;13.450;2023-02-28T01:08:38;18.50;48.80
13369;DHT22;6753;52.520;13.450;2023-02-28T01:08:48;18.50;48.80
13369;DHT22;6753;52.520;13.450;2023-02-28T01:08:59;18.50;48.90
13369;DHT22;6753;52.520;13.450;2023-02-28T01:09:11;18.50;48.80
13369;DHT22;6753;52.520;13.450;2023-02-28T01:09:21;18.50;48.90
13369;DHT22;6753;52.520;13.450;2023-02-28T01:09:32;18.50;48.90
13369;DHT22;6753;52.520;13.450;2023-02-28T01:09:44;18.50;48.90
13369;DHT22;6753;52.520;13.450;2023-02-28T01:09:55;18.50;48.90
13369;DHT22;6753;52.520;13.450;2023-02-28T01:10:06;18.50;48.80
13369;DHT22;6753;52.520;13.450;2023-02-28T01:10:17;18.50;48.90
13369;DHT22;6753;52.520;13.450;2023-02-28T01:10:28;18.50;48.80
13369;DHT22;6753;52.520;13.450;2023-02-28T01:10:42;18.50;48.80
13369;DHT22;6753;52.520;13.450;2023-02-28T01:10:53;18.90;49.40
13369;DHT22;6753;52.520;13.450;2023-02-28T01:11:08;18.50;48.90
13369;DHT22;6753;52.520;13.450;2023-02-28T01:11:20;18.50;48.80